Time;durP1;ratioP1;P1;durP2;ratioP2;P2;SDS_P1;SDS_P2;PMS_P1;PMS_P2;Temp;Humidity;BMP_temperature;BMP_pressure;BME280_temperature;BME280_humidity;BME280_pressure;Samples;Min_cycle;Max_cycle;Signal;HPM_P1;HPM_P2
2022/10/09 00:02:00;;;;;;;3.97;2.47;;;12.60;99.90;;;;;;5095361;28;20252;-48
2022/10/09 00:04:27;;;;;;;4.47;2.77;;;12.60;99.90;;;;;;5086941;28;20202;-48
2022/10/09 00:06:55;;;;;;;6.40;3.27;;;12.60;99.90;;;;;;5084562;28;20234;-49
2022/10/09 00:09:22;;;;;;;4.30;2.40;;;12.60;99.90;;;;;;5084177;28;20196;-48
2022/10/09 00:11:49;;;;;;;3.00;1.90;;;12.60;99.90;;;;;;5084544;28;20685;-49
2022/10/09 00:14:16;;;;;;;6.40;3.30;;;12.60;99.90;;;;;;5089719;28;20205;-49
2022/10/09 00:16:43;;;;;;;6.43;3.33;;;12.50;99.90;;;;;;5092423;28;20306;-49
2022/10/09 00:19:10;;;;;;;4.37;2.03;;;12.50;99.90;;;;;;5086340;28;20283;-48
2022/10/09 00:21:37;;;;;;;4.37;2.13;;;12.40;99.90;;;;;;5085921;28;20196;-49
2022/10/09 00:24:06;;;;;;;2.27;1.77;;;12.40;99.90;;;;;;5087490;28;20206;-48
2022/10/09 00:26:33;;;;;;;7.53;2.90;;;12.50;99.90;;;;;;5094180;28;20195;-48
2022/10/09 00:29:00;;;;;;;3.30;2.23;;;12.40;99.90;;;;;;5093386;28;20200;-49
2022/10/09 00:31:27;;;;;;;5.43;1.53;;;12.40;99.90;;;;;;5084146;28;20195;-48
2022/10/09 00:33:54;;;;;;;5.60;2.07;;;12.40;99.90;;;;;;5089117;28;20203;-49
2022/10/09 00:36:23;;;;;;;4.63;2.10;;;12.40;99.90;;;;;;5073419;28;20219;-49
2022/10/09 00:38:51;;;;;;;8.60;1.83;;;12.30;99.90;;;;;;5080608;28;20701;-49
2022/10/09 00:41:22;;;;;;;4.33;2.07;;;12.20;99.90;;;;;;5085632;28;20238;-49
2022/10/09 00:43:51;;;;;;;2.83;1.37;;;12.30;99.90;;;;;;5091221;28;20207;-49
2022/10/09 00:46:25;;;;;;;4.17;1.87;;;12.30;99.90;;;;;;5081942;28;20192;-48
2022/10/09 00:49:02;;;;;;;4.70;1.93;;;12.30;99.90;;;;;;5078425;28;20226;-48
2022/10/09 00:51:30;;;;;;;6.93;2.07;;;12.30;99.90;;;;;;5082044;28;20283;-49
2022/10/09 00:53:57;;;;;;;2.43;1.57;;;12.20;99.90;;;;;;5082734;28;20196;-49
2022/10/09 00:56:26;;;;;;;3.93;1.63;;;12.10;99.90;;;;;;5093402;28;20223;-49
2022/10/09 00:58:55;;;;;;;1.83;1.60;;;12.10;99.90;;;;;;5093821;28;20209;-48
2022/10/09 01:01:22;;;;;;;4.47;2.87;;;12.00;99.90;;;;;;5093765;28;20206;-49
2022/10/09 01:03:50;;;;;;;2.83;1.53;;;12.00;99.90;;;;;;5088891;28;20208;-48
2022/10/09 01:06:20;;;;;;;2.67;1.70;;;12.00;99.90;;;;;;5078838;28;20189;-48
2022/10/09 01:08:55;;;;;;;3.83;1.90;;;12.10;99.90;;;;;;5086154;28;20204;-49
2022/10/09 01:11:34;;;;;;;5.53;1.90;;;12.00;99.90;;;;;;5078829;28;20200;-50
2022/10/09 01:14:09;;;;;;;2.97;2.10;;;12.00;99.90;;;;;;5073527;28;20193;-48
2022/10/09 01:16:41;;;;;;;3.37;1.30;;;12.00;99.90;;;;;;5081463;28;20220;-48
2022/10/09 01:19:22;;;;;;;2.10;1.93;;;11.90;99.90;;;;;;5081495;28;20200;-49
2022/10/09 01:21:58;;;;;;;4.70;1.90;;;11.90;99.90;;;;;;5085011;28;20566;-48
2022/10/09 01:24:29;;;;;;;3.80;2.20;;;11.80;99.90;;;;;;5086150;28;20197;-48
2022/10/09 01:27:04;;;;;;;5.93;2.60;;;11.80;99.90;;;;;;5080627;28;20231;-48
2022/10/09 01:29:35;;;;;;;5.27;2.00;;;11.80;99.90;;;;;;5093136;28;20285;-49
2022/10/09 01:32:04;;;;;;;4.20;1.73;;;11.80;99.90;;;;;;5091719;28;20235;-48
2022/10/09 01:34:32;;;;;;;2.17;2.00;;;11.70;99.90;;;;;;5084588;28;20296;-48
2022/10/09 01:37:00;;;;;;;4.63;2.60;;;11.70;99.90;;;;;;5072941;28;20225;-48
2022/10/09 01:39:30;;;;;;;6.33;2.47;;;11.80;99.90;;;;;;5087730;28;20207;-49
2022/10/09 01:41:58;;;;;;;3.87;2.70;;;11.80;99.90;;;;;;5091597;28;20711;-48
2022/10/09 01:44:28;;;;;;;4.53;3.43;;;11.80;99.90;;;;;;5077268;28;20196;-48
2022/10/09 01:46:55;;;;;;;5.50;3.17;;;11.90;99.90;;;;;;5076952;28;20223;-49
2022/10/09 01:49:39;;;;;;;2.87;2.67;;;11.90;99.90;;;;;;5077660;28;20686;-48
2022/10/09 01:52:19;;;;;;;3.17;2.60;;;11.90;99.90;;;;;;5075562;28;20247;-48
2022/10/09 01:54:56;;;;;;;5.67;2.43;;;11.90;99.90;;;;;;5087364;28;20268;-48
2022/10/09 01:57:29;;;;;;;4.93;2.77;;;11.90;99.90;;;;;;5092426;28;20225;-48
2022/10/09 01:59:58;;;;;;;4.47;2.70;;;11.90;99.90;;;;;;5073148;28;20197;-48
2022/10/09 02:02:26;;;;;;;3.13;2.40;;;11.90;99.90;;;;;;5073775;28;20581;-48
2022/10/09 02:04:54;;;;;;;3.27;2.57;;;11.90;99.90;;;;;;5087539;28;20642;-49
2022/10/09 02:07:23;;;;;;;2.57;2.07;;;11.90;99.90;;;;;;5090309;28;20220;-48
2022/10/09 02:09:50;;;;;;;5.90;3.40;;;11.80;99.90;;;;;;5081665;28;20210;-48
2022/10/09 02:12:21;;;;;;;6.30;2.40;;;11.80;99.90;;;;;;5091400;28;20207;-48
2022/10/09 02:14:50;;;;;;;2.97;2.47;;;11.80;99.90;;;;;;5090147;28;20234;-49
2022/10/09 02:17:21;;;;;;;3.77;2.57;;;11.70;99.90;;;;;;5087907;28;20584;-50
2022/10/09 02:19:51;;;;;;;4.03;2.57;;;11.80;99.90;;;;;;5083836;28;20199;-48
2022/10/09 02:22:23;;;;;;;6.07;2.80;;;11.70;99.90;;;;;;5082292;28;20291;-49
2022/10/09 02:24:50;;;;;;;2.80;2.60;;;11.70;99.90;;;;;;5075205;28;20200;-48
2022/10/09 02:27:19;;;;;;;4.80;2.90;;;11.70;99.90;;;;;;5085134;28;20219;-47
2022/10/09 02:29:47;;;;;;;3.07;2.50;;;11.60;99.90;;;;;;5081262;28;20200;-48
2022/10/09 02:32:17;;;;;;;8.73;2.33;;;11.50;99.90;;;;;;5080008;28;20612;-48
2022/10/09 02:34:44;;;;;;;5.37;2.80;;;11.50;99.90;;;;;;5071873;28;20234;-48
2022/10/09 02:37:11;;;;;;;2.17;1.93;;;11.40;99.90;;;;;;5071877;28;20296;-48
2022/10/09 02:39:38;;;;;;;1.83;1.73;;;11.30;99.90;;;;;;5075851;28;20272;-49
2022/10/09 02:42:05;;;;;;;2.37;2.20;;;11.30;99.90;;;;;;5079777;28;20199;-48
2022/10/09 02:44:32;;;;;;;4.63;2.50;;;11.20;99.90;;;;;;5091078;28;20204;-48
2022/10/09 02:46:59;;;;;;;11.43;2.67;;;11.20;99.90;;;;;;5074627;28;20223;-48
2022/10/09 02:49:28;;;;;;;6.13;2.63;;;11.20;99.90;;;;;;5079272;28;20197;-49
2022/10/09 02:51:55;;;;;;;8.17;2.47;;;11.20;99.90;;;;;;5091892;28;20249;-49
2022/10/09 02:54:22;;;;;;;5.93;2.90;;;11.20;99.90;;;;;;5087003;28;20204;-48
2022/10/09 02:56:49;;;;;;;3.17;2.70;;;11.20;99.90;;;;;;5081693;28;20303;-48
2022/10/09 02:59:16;;;;;;;5.17;2.70;;;11.30;99.90;;;;;;5085661;28;20203;-49
2022/10/09 03:01:43;;;;;;;4.63;2.10;;;11.30;99.90;;;;;;5096719;28;20614;-48
2022/10/09 03:04:10;;;;;;;4.50;2.33;;;11.20;99.90;;;;;;5089988;28;20202;-48
2022/10/09 03:06:38;;;;;;;4.60;2.60;;;11.20;99.90;;;;;;5098458;28;20228;-48
2022/10/09 03:09:05;;;;;;;6.03;3.27;;;11.20;99.90;;;;;;5096697;28;20208;-48
2022/10/09 03:11:32;;;;;;;7.33;3.73;;;11.10;99.90;;;;;;5089465;28;20246;-48
2022/10/09 03:13:59;;;;;;;5.03;3.17;;;11.20;99.90;;;;;;5078195;28;20200;-49
2022/10/09 03:16:27;;;;;;;2.90;2.70;;;11.20;99.90;;;;;;5082156;28;20197;-48
2022/10/09 03:18:54;;;;;;;4.80;3.00;;;11.20;99.90;;;;;;5090870;28;20260;-48
2022/10/09 03:21:24;;;;;;;3.07;2.50;;;11.20;99.90;;;;;;5098578;28;20210;-48
2022/10/09 03:23:53;;;;;;;3.63;3.30;;;11.10;99.90;;;;;;5096997;28;20202;-48
2022/10/09 03:26:22;;;;;;;3.83;3.10;;;11.00;99.90;;;;;;5089807;28;20248;-48
2022/10/09 03:28:51;;;;;;;3.93;3.53;;;11.00;99.90;;;;;;5098277;28;20855;-48
2022/10/09 03:31:20;;;;;;;4.97;2.77;;;11.00;99.90;;;;;;5098168;28;20296;-49
2022/10/09 03:33:47;;;;;;;9.33;3.53;;;11.00;99.90;;;;;;5087604;28;20292;-50
2022/10/09 03:36:14;;;;;;;2.63;2.40;;;11.00;99.90;;;;;;5098104;28;20335;-48
2022/10/09 03:38:41;;;;;;;5.73;3.50;;;11.00;99.90;;;;;;5096370;28;20226;-48
2022/10/09 03:41:10;;;;;;;2.83;2.63;;;11.10;99.90;;;;;;5086161;28;20664;-48
2022/10/09 03:43:40;;;;;;;5.57;3.30;;;11.10;99.90;;;;;;5077709;28;20277;-48
2022/10/09 03:46:08;;;;;;;4.23;2.93;;;11.10;99.90;;;;;;5077810;28;20201;-48
2022/10/09 03:48:35;;;;;;;5.43;2.50;;;11.10;99.90;;;;;;5093432;28;20221;-48
2022/10/09 03:51:03;;;;;;;9.00;3.33;;;11.10;99.90;;;;;;5089492;28;20206;-49
2022/10/09 03:53:30;;;;;;;4.63;2.53;;;11.20;99.90;;;;;;5090099;28;20751;-49
2022/10/09 03:55:57;;;;;;;3.10;2.67;;;11.20;99.90;;;;;;5097456;28;20255;-49
2022/10/09 03:58:25;;;;;;;4.93;3.20;;;11.20;99.90;;;;;;5097755;28;20218;-48
2022/10/09 04:00:53;;;;;;;2.93;2.60;;;11.20;99.90;;;;;;5097962;28;20625;-49
2022/10/09 04:03:20;;;;;;;4.10;3.77;;;11.20;99.90;;;;;;5097724;28;20203;-48
2022/10/09 04:05:47;;;;;;;5.50;2.53;;;11.30;99.90;;;;;;5087439;28;20732;-49
2022/10/09 04:08:15;;;;;;;4.77;3.37;;;11.30;99.90;;;;;;5092022;28;20285;-49
2022/10/09 04:10:42;;;;;;;4.57;3.13;;;11.30;99.90;;;;;;5092945;28;20207;-48
2022/10/09 04:13:09;;;;;;;4.00;3.67;;;11.20;99.90;;;;;;5094410;28;20196;-48
2022/10/09 04:15:37;;;;;;;10.57;3.80;;;11.30;99.90;;;;;;5094849;28;20196;-49
2022/10/09 04:18:04;;;;;;;3.60;2.93;;;11.30;99.90;;;;;;5094642;28;20744;-49
2022/10/09 04:20:32;;;;;;;6.03;3.53;;;11.20;99.90;;;;;;5092646;28;20272;-49
2022/10/09 04:22:59;;;;;;;3.70;3.00;;;11.20;99.90;;;;;;5093193;28;20227;-48
2022/10/09 04:25:26;;;;;;;4.17;3.07;;;11.20;99.90;;;;;;5079019;28;20199;-49
2022/10/09 04:27:53;;;;;;;6.57;2.87;;;11.30;99.90;;;;;;5080924;28;20716;-48
2022/10/09 04:30:20;;;;;;;3.40;3.07;;;11.30;99.90;;;;;;5079985;28;20675;-48
2022/10/09 04:32:48;;;;;;;4.60;3.53;;;11.30;99.90;;;;;;5074019;28;20673;-48
2022/10/09 04:35:15;;;;;;;5.40;2.93;;;11.30;99.90;;;;;;5076455;28;20580;-49
2022/10/09 04:37:42;;;;;;;3.03;2.80;;;11.30;99.90;;;;;;5085360;28;20231;-48
2022/10/09 04:40:10;;;;;;;3.90;2.90;;;11.30;99.90;;;;;;5089332;28;20214;-48
2022/10/09 04:42:37;;;;;;;2.70;2.57;;;11.30;99.90;;;;;;5082172;28;20252;-48
2022/10/09 04:45:05;;;;;;;8.33;4.53;;;11.30;99.90;;;;;;5093751;28;20254;-49
2022/10/09 04:47:33;;;;;;;3.47;3.17;;;11.30;99.90;;;;;;5094101;28;20227;-49
2022/10/09 04:50:01;;;;;;;5.37;3.50;;;11.30;99.90;;;;;;5089703;28;20207;-49
2022/10/09 04:52:28;;;;;;;8.50;3.10;;;11.30;99.90;;;;;;5081969;28;20199;-49
2022/10/09 04:54:55;;;;;;;3.87;3.53;;;11.30;99.90;;;;;;5081138;28;20200;-48
2022/10/09 04:57:22;;;;;;;4.10;3.43;;;11.30;99.90;;;;;;5081980;28;20277;-48
2022/10/09 04:59:49;;;;;;;3.70;2.63;;;11.40;99.90;;;;;;5075114;28;20200;-48
2022/10/09 05:02:16;;;;;;;3.60;2.83;;;11.30;99.90;;;;;;5089333;28;20575;-49
2022/10/09 05:04:43;;;;;;;4.50;3.87;;;11.30;99.90;;;;;;5091581;28;20909;-48
2022/10/09 05:07:12;;;;;;;3.50;2.70;;;11.30;99.90;;;;;;5081424;28;20255;-48
2022/10/09 05:09:39;;;;;;;2.90;2.70;;;11.30;99.90;;;;;;5074487;28;20266;-48
2022/10/09 05:12:06;;;;;;;4.00;3.60;;;11.30;99.90;;;;;;5090356;28;20198;-48
2022/10/09 05:14:34;;;;;;;4.30;2.80;;;11.30;99.90;;;;;;5075356;28;20204;-49
2022/10/09 05:17:04;;;;;;;3.33;2.97;;;11.30;99.90;;;;;;5078297;28;20221;-49
2022/10/09 05:19:31;;;;;;;6.20;3.53;;;11.30;99.90;;;;;;5092033;28;20222;-49
2022/10/09 05:21:58;;;;;;;4.60;4.30;;;11.30;99.90;;;;;;5092502;28;20207;-49
2022/10/09 05:24:27;;;;;;;4.30;3.33;;;11.30;99.90;;;;;;5092671;28;20608;-48
2022/10/09 05:26:54;;;;;;;6.37;3.73;;;11.40;99.90;;;;;;5091273;28;20238;-49
2022/10/09 05:29:21;;;;;;;3.20;3.00;;;11.40;99.90;;;;;;5086783;28;20196;-49
2022/10/09 05:31:48;;;;;;;6.13;3.77;;;11.40;99.90;;;;;;5093157;28;20202;-49
2022/10/09 05:34:15;;;;;;;3.60;3.30;;;11.40;99.90;;;;;;5089183;28;20250;-48
2022/10/09 05:36:42;;;;;;;5.33;3.97;;;11.40;99.90;;;;;;5083108;28;20228;-48
2022/10/09 05:39:09;;;;;;;5.37;3.70;;;11.40;99.90;;;;;;5080158;28;20219;-48
2022/10/09 05:41:37;;;;;;;4.80;4.40;;;11.30;99.90;;;;;;5089097;28;20198;-48
2022/10/09 05:44:04;;;;;;;6.53;4.70;;;11.40;99.90;;;;;;5085801;28;20257;-49
2022/10/09 05:46:31;;;;;;;5.70;3.90;;;11.50;99.90;;;;;;5084457;28;20252;-49
2022/10/09 05:49:00;;;;;;;3.70;3.33;;;11.50;99.90;;;;;;5092940;28;20726;-49
2022/10/09 05:51:29;;;;;;;8.90;3.73;;;11.60;99.90;;;;;;5092414;28;20292;-48
2022/10/09 05:53:57;;;;;;;3.43;3.07;;;11.50;99.90;;;;;;5085178;28;20195;-48
2022/10/09 05:56:26;;;;;;;2.63;2.43;;;11.50;99.90;;;;;;5083976;28;20206;-48
2022/10/09 05:58:55;;;;;;;3.33;3.03;;;11.50;99.90;;;;;;5073405;28;20292;-48
2022/10/09 06:01:24;;;;;;;6.90;3.37;;;11.40;99.90;;;;;;5087661;28;20202;-48
2022/10/09 06:03:52;;;;;;;4.93;2.50;;;11.40;99.90;;;;;;5083681;28;20204;-48
2022/10/09 06:06:21;;;;;;;5.00;2.93;;;11.40;99.90;;;;;;5092168;28;20214;-48
2022/10/09 06:08:48;;;;;;;4.13;3.00;;;11.40;99.90;;;;;;5092053;28;20211;-49
2022/10/09 06:11:18;;;;;;;3.70;3.40;;;11.40;99.90;;;;;;5090758;28;20203;-49
2022/10/09 06:13:46;;;;;;;2.93;2.63;;;11.40;99.90;;;;;;5082531;28;20204;-49
2022/10/09 06:16:16;;;;;;;3.73;2.37;;;11.40;99.90;;;;;;5081032;28;20211;-48
2022/10/09 06:18:46;;;;;;;3.97;2.70;;;11.40;99.90;;;;;;5089894;28;20772;-48
2022/10/09 06:21:14;;;;;;;3.93;2.47;;;11.50;99.90;;;;;;5090274;28;20287;-48
2022/10/09 06:23:42;;;;;;;2.70;2.50;;;11.50;99.90;;;;;;5089156;28;20699;-48
2022/10/09 06:26:12;;;;;;;6.40;3.87;;;11.50;99.90;;;;;;5085724;28;20330;-48
2022/10/09 06:28:40;;;;;;;3.20;2.90;;;11.60;99.90;;;;;;5091978;28;20225;-49
2022/10/09 06:31:12;;;;;;;7.07;3.90;;;11.70;99.90;;;;;;5091418;28;20206;-48
2022/10/09 06:33:44;;;;;;;4.03;3.37;;;11.70;99.90;;;;;;5086871;28;20200;-48
2022/10/09 06:36:13;;;;;;;8.80;3.37;;;11.70;99.90;;;;;;5087152;28;20247;-48
2022/10/09 06:38:43;;;;;;;4.00;2.90;;;11.70;99.90;;;;;;5071928;28;20647;-49
2022/10/09 06:41:12;;;;;;;4.10;2.53;;;11.90;99.90;;;;;;5090083;28;20259;-49
2022/10/09 06:43:40;;;;;;;4.03;3.33;;;12.00;99.90;;;;;;5090253;28;20616;-48
2022/10/09 06:46:10;;;;;;;5.37;3.53;;;12.00;99.90;;;;;;5083697;28;20260;-48
2022/10/09 06:48:38;;;;;;;3.67;3.37;;;12.00;99.90;;;;;;5088255;28;20312;-49
2022/10/09 06:51:08;;;;;;;4.20;2.97;;;11.90;99.90;;;;;;5085414;28;20668;-49
2022/10/09 06:53:36;;;;;;;4.00;3.70;;;11.90;99.90;;;;;;5090022;28;20196;-48
2022/10/09 06:56:03;;;;;;;2.70;2.40;;;11.90;99.90;;;;;;5088024;28;20616;-48
2022/10/09 06:58:30;;;;;;;3.80;3.10;;;11.90;99.90;;;;;;5077730;28;20223;-48
2022/10/09 07:01:06;;;;;;;4.83;3.93;;;12.00;99.90;;;;;;5091005;28;20266;-49
2022/10/09 07:03:33;;;;;;;4.00;3.80;;;12.10;99.90;;;;;;5071188;28;20228;-49
2022/10/09 07:06:10;;;;;;;4.50;4.10;;;12.10;99.90;;;;;;5071324;28;20201;-48
2022/10/09 07:08:40;;;;;;;5.33;3.60;;;12.10;99.90;;;;;;5076391;28;20219;-48
2022/10/09 07:11:12;;;;;;;4.40;3.20;;;12.20;99.90;;;;;;5084065;28;20219;-48
2022/10/09 07:13:43;;;;;;;8.10;4.20;;;12.20;99.90;;;;;;5087012;28;20199;-48
2022/10/09 07:16:11;;;;;;;4.70;4.13;;;12.30;99.90;;;;;;5081588;28;20637;-48
2022/10/09 07:18:41;;;;;;;4.53;4.23;;;12.40;99.90;;;;;;5086545;28;20712;-49
2022/10/09 07:21:10;;;;;;;5.27;4.00;;;12.50;99.90;;;;;;5082966;28;20195;-48
2022/10/09 07:23:40;;;;;;;6.60;5.23;;;12.60;99.90;;;;;;5091100;28;20203;-48
2022/10/09 07:26:12;;;;;;;7.27;5.03;;;12.70;99.90;;;;;;5088333;28;20242;-48
2022/10/09 07:28:44;;;;;;;7.57;5.07;;;12.80;99.90;;;;;;5082880;28;20700;-48
2022/10/09 07:31:11;;;;;;;9.83;8.03;;;12.80;99.90;;;;;;5091464;28;20252;-49
2022/10/09 07:33:41;;;;;;;8.27;4.87;;;12.80;99.90;;;;;;5091316;28;21044;-49
2022/10/09 07:36:10;;;;;;;8.33;4.37;;;12.90;99.90;;;;;;5091695;28;20676;-48
2022/10/09 07:38:38;;;;;;;9.00;3.93;;;13.00;99.90;;;;;;5091585;28;20270;-48
2022/10/09 07:41:06;;;;;;;6.43;3.63;;;13.10;99.90;;;;;;5091816;28;20215;-48
2022/10/09 07:43:35;;;;;;;4.40;4.10;;;13.20;99.90;;;;;;5082299;28;20193;-48
2022/10/09 07:46:03;;;;;;;5.63;4.13;;;13.20;99.90;;;;;;5085012;28;20665;-48
2022/10/09 07:48:30;;;;;;;4.00;3.70;;;13.20;99.90;;;;;;5095453;28;20219;-48
2022/10/09 07:50:57;;;;;;;3.50;3.20;;;13.20;99.90;;;;;;5085192;28;20269;-48
2022/10/09 07:53:26;;;;;;;4.00;3.60;;;13.20;99.90;;;;;;5074895;28;20203;-49
2022/10/09 07:55:52;;;;;;;4.27;3.80;;;13.40;99.90;;;;;;5075043;28;20208;-49
2022/10/09 07:58:19;;;;;;;4.03;3.73;;;13.40;99.90;;;;;;5074544;28;20685;-48
2022/10/09 08:00:46;;;;;;;4.67;3.47;;;13.40;99.90;;;;;;5082552;28;20257;-48
2022/10/09 08:03:13;;;;;;;5.07;3.50;;;13.50;99.90;;;;;;5080957;28;20203;-49
2022/10/09 08:05:40;;;;;;;3.43;3.00;;;13.40;99.90;;;;;;5076358;28;20204;-48
2022/10/09 08:08:07;;;;;;;4.00;3.13;;;13.60;99.90;;;;;;5084280;28;20230;-49
2022/10/09 08:10:36;;;;;;;4.87;3.37;;;13.70;99.90;;;;;;5078178;28;20208;-49
2022/10/09 08:13:02;;;;;;;6.27;2.90;;;13.80;99.90;;;;;;5074271;28;20197;-48
2022/10/09 08:15:29;;;;;;;3.50;3.30;;;13.90;99.90;;;;;;5077556;28;20200;-49
2022/10/09 08:17:56;;;;;;;3.03;2.83;;;14.00;99.90;;;;;;5083197;28;20276;-48
2022/10/09 08:20:23;;;;;;;3.40;3.10;;;14.00;99.90;;;;;;5074568;28;20200;-48
2022/10/09 08:22:50;;;;;;;3.37;3.10;;;14.10;99.90;;;;;;5074410;28;20205;-49
2022/10/09 08:25:17;;;;;;;3.93;3.63;;;14.10;99.90;;;;;;5074175;28;20204;-49
2022/10/09 08:27:45;;;;;;;6.10;3.97;;;14.20;99.90;;;;;;5074118;28;20282;-48
2022/10/09 08:30:13;;;;;;;4.20;2.87;;;14.30;99.90;;;;;;5074396;28;20246;-48
2022/10/09 08:32:40;;;;;;;4.40;3.00;;;14.30;99.90;;;;;;5080327;28;20205;-48
2022/10/09 08:35:08;;;;;;;5.13;3.90;;;14.40;99.90;;;;;;5082313;28;20635;-48
2022/10/09 08:37:35;;;;;;;4.93;4.20;;;14.50;99.90;;;;;;5074010;28;20220;-48
2022/10/09 08:40:02;;;;;;;5.27;4.30;;;14.70;99.90;;;;;;5073954;28;20286;-49
2022/10/09 08:42:36;;;;;;;3.83;3.60;;;15.00;99.90;;;;;;5073801;28;20205;-48
2022/10/09 08:45:06;;;;;;;7.93;4.03;;;15.30;99.90;;;;;;5073925;28;20201;-48
2022/10/09 08:47:40;;;;;;;5.67;4.10;;;15.50;99.90;;;;;;5074860;28;20236;-48
2022/10/09 08:50:14;;;;;;;3.70;3.40;;;15.70;99.90;;;;;;5081065;28;20658;-48
2022/10/09 08:52:49;;;;;;;8.77;4.43;;;15.90;99.90;;;;;;5082014;28;20194;-49
2022/10/09 08:55:22;;;;;;;5.53;4.50;;;15.80;99.90;;;;;;5073871;28;20274;-50
2022/10/09 08:57:51;;;;;;;4.30;4.00;;;15.80;99.90;;;;;;5073363;28;20221;-49
2022/10/09 09:00:22;;;;;;;6.70;3.87;;;15.70;99.90;;;;;;5080031;28;20277;-49
2022/10/09 09:03:31;;;;;;;4.93;3.77;;;15.80;99.90;;;;;;5085186;28;20200;-49
2022/10/09 09:06:06;;;;;;;5.67;4.13;;;16.00;99.90;;;;;;5084706;28;20204;-49
2022/10/09 09:08:45;;;;;;;5.50;4.13;;;16.10;99.90;;;;;;5077161;28;20779;-49
2022/10/09 09:11:19;;;;;;;4.50;4.10;;;16.20;99.90;;;;;;5073279;28;20251;-48
2022/10/09 09:13:57;;;;;;;6.50;4.37;;;16.40;99.90;;;;;;5081420;28;20208;-50
2022/10/09 09:16:36;;;;;;;5.10;4.10;;;16.70;99.90;;;;;;5078380;28;20205;-49
2022/10/09 09:19:22;;;;;;;5.40;4.90;;;16.30;99.90;;;;;;5073216;28;20293;-49
2022/10/09 09:21:51;;;;;;;5.30;4.80;;;16.30;99.90;;;;;;5086455;28;20228;-49
2022/10/09 09:24:19;;;;;;;9.87;4.57;;;16.20;99.90;;;;;;5084930;28;20757;-49
2022/10/09 09:26:50;;;;;;;6.93;4.33;;;16.10;99.90;;;;;;5090079;28;20289;-48
2022/10/09 09:29:22;;;;;;;4.50;4.10;;;15.70;99.90;;;;;;5081258;28;20258;-49
2022/10/09 09:31:56;;;;;;;5.60;4.67;;;15.60;99.90;;;;;;5073251;28;20627;-48
2022/10/09 09:34:28;;;;;;;5.00;4.53;;;15.70;99.90;;;;;;5089692;28;20212;-49
2022/10/09 09:36:58;;;;;;;5.43;4.93;;;15.60;99.90;;;;;;5090640;28;20725;-48
2022/10/09 09:39:28;;;;;;;6.97;4.87;;;15.60;99.90;;;;;;5082533;28;20217;-50
2022/10/09 09:42:00;;;;;;;4.17;3.83;;;15.50;99.90;;;;;;5081743;28;20662;-48
2022/10/09 09:44:30;;;;;;;6.07;4.83;;;15.40;99.90;;;;;;5085778;28;20612;-48
2022/10/09 09:46:58;;;;;;;8.63;4.27;;;15.40;99.90;;;;;;5092996;28;20270;-49
2022/10/09 09:49:28;;;;;;;5.73;4.07;;;15.40;99.90;;;;;;5092713;28;20197;-48
2022/10/09 09:51:57;;;;;;;5.50;4.27;;;15.40;99.90;;;;;;5072650;28;20201;-49
2022/10/09 09:54:26;;;;;;;4.80;4.40;;;15.30;99.90;;;;;;5074496;28;20682;-48
2022/10/09 09:56:56;;;;;;;4.37;3.90;;;15.10;99.90;;;;;;5082408;28;20221;-48
2022/10/09 09:59:31;;;;;;;4.50;4.20;;;15.10;99.90;;;;;;5077722;28;20248;-50
2022/10/09 10:02:04;;;;;;;5.67;3.97;;;15.00;99.90;;;;;;5072451;28;20208;-48
2022/10/09 10:04:31;;;;;;;3.57;3.37;;;15.00;99.90;;;;;;5072264;28;20254;-49
2022/10/09 10:06:59;;;;;;;4.00;3.70;;;15.00;99.90;;;;;;5077063;28;20236;-48
2022/10/09 10:09:26;;;;;;;5.33;4.17;;;15.00;99.90;;;;;;5092074;28;20196;-48
2022/10/09 10:11:58;;;;;;;4.87;4.30;;;15.00;99.90;;;;;;5081081;28;20217;-48
2022/10/09 10:14:25;;;;;;;6.37;3.53;;;14.90;99.90;;;;;;5076961;28;20665;-50
2022/10/09 10:16:55;;;;;;;6.90;3.83;;;14.90;99.90;;;;;;5072055;28;20221;-49
2022/10/09 10:19:26;;;;;;;8.00;4.23;;;15.00;99.90;;;;;;5072130;28;20224;-48
2022/10/09 10:21:59;;;;;;;5.00;4.00;;;15.00;99.90;;;;;;5100711;22;20659;-51
2022/10/09 10:24:31;;;;;;;8.13;4.37;;;15.10;99.90;;;;;;5073040;28;20196;-51
2022/10/09 10:27:03;;;;;;;4.23;3.93;;;14.90;99.90;;;;;;5076545;28;20201;-52
2022/10/09 10:29:35;;;;;;;6.30;4.33;;;14.80;99.90;;;;;;5087441;28;20262;-51
2022/10/09 10:32:11;;;;;;;5.67;4.10;;;14.90;99.90;;;;;;5087767;28;20281;-50
2022/10/09 10:34:44;;;;;;;4.60;4.20;;;14.90;99.90;;;;;;5079593;28;20193;-51
2022/10/09 10:37:26;;;;;;;5.43;4.93;;;14.90;99.90;;;;;;5071437;28;20201;-51
2022/10/09 10:39:59;;;;;;;5.10;4.60;;;14.90;99.90;;;;;;5071623;28;20221;-51
2022/10/09 10:42:34;;;;;;;4.37;4.07;;;14.90;99.90;;;;;;5084491;28;20216;-51
2022/10/09 10:45:07;;;;;;;5.83;3.87;;;14.90;99.90;;;;;;5077216;28;20200;-51
2022/10/09 10:47:39;;;;;;;5.70;4.57;;;15.00;99.90;;;;;;5082012;28;20257;-51
2022/10/09 10:50:13;;;;;;;7.60;4.17;;;15.00;99.90;;;;;;5084934;28;20196;-51
2022/10/09 10:52:55;;;;;;;4.07;3.77;;;14.90;99.90;;;;;;5088232;28;20279;-51
2022/10/09 10:55:34;;;;;;;5.17;4.10;;;14.90;99.90;;;;;;5078463;28;20654;-52
2022/10/09 10:58:12;;;;;;;10.60;4.43;;;15.00;99.90;;;;;;5080335;28;20698;-52
2022/10/09 11:00:44;;;;;;;4.40;4.10;;;15.00;99.90;;;;;;5080129;28;20232;-52
2022/10/09 11:03:39;;;;;;;5.97;3.93;;;15.00;99.90;;;;;;5086000;28;20204;-51
2022/10/09 11:06:16;;;;;;;8.13;4.23;;;15.00;99.90;;;;;;5077002;28;20197;-51
2022/10/09 11:08:56;;;;;;;4.10;3.70;;;15.10;99.90;;;;;;5077239;28;20615;-52
2022/10/09 11:11:32;;;;;;;5.10;3.60;;;15.10;99.90;;;;;;5081124;28;20269;-52
2022/10/09 11:14:08;;;;;;;4.97;3.93;;;15.10;99.90;;;;;;5078786;28;20630;-52
2022/10/09 11:16:51;;;;;;;6.43;4.73;;;15.20;99.90;;;;;;5073578;28;20203;-52
2022/10/09 11:19:34;;;;;;;3.63;3.37;;;15.20;99.90;;;;;;5078358;28;20232;-52
2022/10/09 11:22:14;;;;;;;6.50;3.90;;;15.20;99.90;;;;;;5087958;28;20286;-52
2022/10/09 11:25:02;;;;;;;6.53;4.60;;;15.20;99.90;;;;;;5074496;28;20204;-52
2022/10/09 11:27:38;;;;;;;4.27;3.83;;;15.20;99.90;;;;;;5077502;28;20196;-52
2022/10/09 11:30:10;;;;;;;4.53;4.10;;;15.30;99.90;;;;;;5091302;28;20280;-51
2022/10/09 11:32:43;;;;;;;4.50;4.17;;;15.30;99.90;;;;;;5084560;28;20585;-52
2022/10/09 11:35:17;;;;;;;6.27;4.10;;;15.30;99.90;;;;;;5094728;28;20732;-52
2022/10/09 11:37:49;;;;;;;9.30;4.53;;;15.30;99.90;;;;;;5094760;28;20200;-52
2022/10/09 11:40:19;;;;;;;5.00;4.00;;;15.30;99.90;;;;;;5094561;28;20771;-52
2022/10/09 11:42:52;;;;;;;5.03;3.93;;;15.30;99.90;;;;;;5094639;28;20266;-52
2022/10/09 11:45:27;;;;;;;5.35;4.85;;;15.30;99.90;;;;;;5086901;28;20473;-52
2022/10/09 11:48:01;;;;;;;6.87;4.97;;;15.30;99.90;;;;;;5085961;28;20192;-53
2022/10/09 11:50:42;;;;;;;5.40;4.87;;;15.20;99.90;;;;;;5079505;28;20270;-52
2022/10/09 11:53:14;;;;;;;6.30;5.80;;;15.10;99.90;;;;;;5078225;28;20192;-52
2022/10/09 11:55:42;;;;;;;8.10;5.00;;;15.10;99.90;;;;;;5075278;28;20262;-52
2022/10/09 11:58:22;;;;;;;5.27;4.87;;;15.10;99.90;;;;;;5092350;28;20219;-53
2022/10/09 12:00:52;;;;;;;5.40;4.90;;;15.00;99.90;;;;;;5088404;28;20220;-52
2022/10/09 12:03:32;;;;;;;5.07;4.77;;;15.10;99.90;;;;;;5073431;28;20204;-52
2022/10/09 12:06:06;;;;;;;5.60;4.23;;;15.10;99.90;;;;;;5074324;28;20209;-52
2022/10/09 12:08:35;;;;;;;8.50;4.33;;;15.00;99.90;;;;;;5074030;28;20189;-52
2022/10/09 12:11:12;;;;;;;5.00;4.50;;;15.00;99.90;;;;;;5073333;28;20225;-52
2022/10/09 12:13:50;;;;;;;7.17;4.83;;;15.00;99.90;;;;;;5073672;28;20208;-52
2022/10/09 12:16:37;;;;;;;5.13;4.57;;;15.10;99.90;;;;;;5088541;28;20283;-52
2022/10/09 12:19:10;;;;;;;6.77;4.27;;;15.10;99.90;;;;;;5085115;28;20201;-52
2022/10/09 12:21:40;;;;;;;5.60;5.07;;;15.00;99.90;;;;;;5083764;28;20224;-52
2022/10/09 12:24:16;;;;;;;6.43;4.97;;;15.00;99.90;;;;;;5081464;28;20193;-52
2022/10/09 12:26:43;;;;;;;6.57;5.83;;;14.90;99.90;;;;;;5073359;28;20241;-52
2022/10/09 12:29:20;;;;;;;11.20;5.77;;;14.90;99.90;;;;;;5077093;28;20200;-52
2022/10/09 12:31:50;;;;;;;5.70;5.03;;;15.00;99.90;;;;;;5081159;28;20224;-50
2022/10/09 12:34:21;;;;;;;5.83;5.33;;;15.00;99.90;;;;;;5085484;28;20295;-51
2022/10/09 12:36:48;;;;;;;5.13;4.73;;;15.00;99.90;;;;;;5091704;28;20223;-50
2022/10/09 12:39:21;;;;;;;5.60;5.13;;;14.90;99.90;;;;;;5073163;28;20213;-50
2022/10/09 12:41:51;;;;;;;7.57;5.67;;;14.90;99.90;;;;;;5092988;28;20232;-51
2022/10/09 12:44:26;;;;;;;7.70;5.63;;;14.80;99.90;;;;;;5092382;28;20208;-50
2022/10/09 12:46:54;;;;;;;6.90;5.90;;;14.80;99.90;;;;;;5083074;28;20403;-50
2022/10/09 12:49:24;;;;;;;7.00;6.30;;;14.70;99.90;;;;;;5078332;28;20204;-50
2022/10/09 12:51:53;;;;;;;6.80;6.00;;;14.60;99.90;;;;;;5072836;28;20221;-50
2022/10/09 12:54:23;;;;;;;6.23;5.73;;;14.60;99.90;;;;;;5072213;28;20204;-50
2022/10/09 12:56:52;;;;;;;6.13;5.67;;;14.70;99.90;;;;;;5073399;28;20277;-50
2022/10/09 12:59:20;;;;;;;9.10;6.20;;;14.60;99.90;;;;;;5072655;28;20206;-50
2022/10/09 13:01:49;;;;;;;7.93;7.00;;;14.70;99.90;;;;;;5079794;28;20227;-49